Vranje, Serbia
Current Conditions -  °F | °C
As of 11:30 AM on Friday 31 Oct 2014 (Local Time) from LWSK Reporting Station
Broken Clouds Broken Clouds  
Wind Chill: 50°   Ceiling: 3300
Heat Index: 50°   Visibility: 6mi
Dew Point: 41°   Wind: 5mph
Humidity: 71%   Direction: 250°WSW
Pressure: 30.27"   Gusts: NA
Location:  42.57°N, 21.91°E
Report Text: LWSK 310930Z 25004KT 210V290 9999 BKN033 10/05 Q1025 NOSIG
Loading
Personal Weather Stations






























Interactive Weather Map
Tropical Storm Tracking
New forecast layout! Learn more

10-Day Weather Forecast

Advertisements
Track Severe Weather on mobile